logo
Rechercher aéroport 
image banner adimage banner adimage banner ad
image banner ad

TFFM - Marie Galante

Situé à Grand Bourg (Antilles), Guadeloupe

ICAO - TFFM, IATA - GBJ

Données fournies par Airmate  

Information générale

Coordonnées: N15°52'7" W61°16'20"
Élévation : 20 feet MSL.
Variation magnétique : -15.01° East
Voir autres Aéroports à (unassigned)

Données opérationnelles

Special qualification required
Heure actuelle UTC:
Heure actuelle locale:
TAF: TAF TDPD 170500Z 1706/1806 11010KT 9999 SCT018
Voir NOTAMs / SUP AIP / TFR affectant cet aéroport [VIEW]
Fréquences de communication: [VIEW]

Pistes:

Identifiant RWYQFULongueur (ft)Largeur (ft)SurfaceLDA (ft)
0978°369498ASPH3694
27258°369498ASPH3320

Coordonnées de l'aéroport

Adresse: Grand Bourg (Antilles) Guadeloupe

Autres services d'aviation

Clubs d'aviation (sans but lucratif)

Aéroclub les Ailes Galantes

Aéroclub les Ailes Galantes
+330690346573

Vue satellite de TFFM